Time;durP1;ratioP1;P1;durP2;ratioP2;P2;SDS_P1;SDS_P2;PMS_P1;PMS_P2;Temp;Humidity;BMP_temperature;BMP_pressure;BME280_temperature;BME280_humidity;BME280_pressure;Samples;Min_cycle;Max_cycle;Signal;HPM_P1;HPM_P2
2021/09/22 00:00:08;;;;;;;15.43;13.77;;;8.70;99.90;;;;;;4997894;28;20203;-78
2021/09/22 00:02:41;;;;;;;19.10;17.30;;;8.70;99.90;;;;;;4976728;28;20307;-78
2021/09/22 00:05:09;;;;;;;18.67;16.87;;;8.70;99.90;;;;;;4998063;28;20208;-78
2021/09/22 00:07:36;;;;;;;17.70;15.87;;;8.70;99.90;;;;;;4976353;28;20197;-78
2021/09/22 00:10:04;;;;;;;17.53;14.47;;;8.70;99.90;;;;;;4977084;28;20201;-78
2021/09/22 00:12:31;;;;;;;15.47;13.87;;;8.60;99.90;;;;;;4976737;28;20262;-78
2021/09/22 00:14:59;;;;;;;15.77;13.70;;;8.60;99.90;;;;;;4978550;28;20205;-78
2021/09/22 00:17:26;;;;;;;21.67;19.47;;;8.50;99.90;;;;;;4985131;28;20199;-78
2021/09/22 00:19:53;;;;;;;17.00;15.00;;;8.60;99.90;;;;;;4997163;28;20230;-78
2021/09/22 00:22:20;;;;;;;17.27;15.47;;;8.50;99.90;;;;;;5017092;23;20235;-76
2021/09/22 00:24:47;;;;;;;17.20;15.30;;;8.50;99.90;;;;;;4989536;28;20201;-76
2021/09/22 00:27:14;;;;;;;16.97;15.00;;;8.50;99.90;;;;;;4987333;28;20211;-76
2021/09/22 00:29:40;;;;;;;19.60;16.13;;;8.40;99.90;;;;;;4971362;28;20205;-76
2021/09/22 00:32:11;;;;;;;21.73;19.57;;;8.40;99.90;;;;;;4970539;28;20205;-76
2021/09/22 00:34:38;;;;;;;20.37;18.40;;;8.40;99.90;;;;;;4990776;28;20197;-76
2021/09/22 00:37:06;;;;;;;19.03;17.27;;;8.40;99.90;;;;;;4988714;28;20327;-76
2021/09/22 00:39:34;;;;;;;21.93;19.77;;;8.40;99.90;;;;;;4983961;28;20231;-76
2021/09/22 00:42:01;;;;;;;20.47;18.57;;;8.40;99.90;;;;;;4988285;28;20203;-76
2021/09/22 00:44:28;;;;;;;20.27;18.47;;;8.40;99.90;;;;;;4984463;28;20203;-76
2021/09/22 00:46:55;;;;;;;19.77;17.97;;;8.40;99.90;;;;;;4990282;28;20258;-75
2021/09/22 00:49:23;;;;;;;20.40;18.50;;;8.30;99.90;;;;;;4986242;28;20211;-76
2021/09/22 00:51:54;;;;;;;20.53;18.43;;;8.30;99.90;;;;;;4982244;28;20624;-76
2021/09/22 00:54:20;;;;;;;20.47;18.37;;;8.30;99.90;;;;;;4987096;28;20239;-76
2021/09/22 00:56:47;;;;;;;19.93;17.97;;;8.30;99.90;;;;;;4987164;28;20289;-75
2021/09/22 00:59:14;;;;;;;21.97;19.77;;;8.20;99.90;;;;;;4986915;28;20680;-76
2021/09/22 01:01:41;;;;;;;19.93;17.93;;;8.30;99.90;;;;;;4989026;28;20204;-76
2021/09/22 01:04:08;;;;;;;18.53;16.83;;;8.20;99.90;;;;;;4986337;28;20234;-75
2021/09/22 01:06:37;;;;;;;18.30;16.70;;;8.20;99.90;;;;;;4985112;28;20636;-76
2021/09/22 01:09:04;;;;;;;19.17;17.47;;;8.20;99.90;;;;;;4988866;28;20629;-76
2021/09/22 01:11:33;;;;;;;20.43;18.47;;;8.10;99.90;;;;;;4984610;28;20205;-76
2021/09/22 01:14:00;;;;;;;20.23;18.20;;;8.10;99.90;;;;;;4991780;28;20220;-76
2021/09/22 01:16:26;;;;;;;19.93;18.03;;;8.10;99.90;;;;;;4991990;28;20653;-76
2021/09/22 01:18:53;;;;;;;20.10;18.00;;;8.10;99.90;;;;;;4988728;28;20197;-75
2021/09/22 01:21:22;;;;;;;19.30;17.40;;;8.10;99.90;;;;;;4984047;28;20207;-76
2021/09/22 01:23:55;;;;;;;20.40;18.40;;;8.10;99.90;;;;;;4981645;28;20222;-76
2021/09/22 01:26:22;;;;;;;20.03;18.13;;;8.10;99.90;;;;;;4988337;28;20227;-76
2021/09/22 01:28:49;;;;;;;19.87;18.00;;;8.10;99.90;;;;;;4984976;28;20199;-76
2021/09/22 01:31:19;;;;;;;21.80;19.70;;;8.10;99.90;;;;;;4989002;28;20289;-76
2021/09/22 01:33:46;;;;;;;19.47;17.60;;;8.10;99.90;;;;;;4985572;28;20254;-75
2021/09/22 01:36:21;;;;;;;18.50;16.60;;;8.10;99.90;;;;;;4985726;28;20301;-75
2021/09/22 01:38:55;;;;;;;12.93;11.07;;;8.10;99.90;;;;;;4982564;28;20242;-76
2021/09/22 01:41:22;;;;;;;12.97;10.83;;;8.10;99.90;;;;;;4987094;28;20200;-76
2021/09/22 01:43:55;;;;;;;14.37;11.17;;;8.00;99.90;;;;;;4982332;28;20309;-76
2021/09/22 01:46:42;;;;;;;13.60;10.93;;;8.00;99.90;;;;;;4989969;28;20199;-75
2021/09/22 01:49:08;;;;;;;13.60;11.13;;;8.00;99.90;;;;;;4985695;28;20591;-77
2021/09/22 01:51:37;;;;;;;14.50;11.37;;;7.90;99.90;;;;;;4983446;28;20213;-75
2021/09/22 01:54:10;;;;;;;15.23;12.00;;;7.90;99.90;;;;;;4985198;28;20282;-76
2021/09/22 01:56:40;;;;;;;14.67;12.10;;;7.90;99.90;;;;;;4983995;28;20197;-75
2021/09/22 01:59:08;;;;;;;15.70;12.17;;;7.90;99.90;;;;;;4987362;28;20215;-75
2021/09/22 02:01:59;;;;;;;16.17;12.43;;;7.90;99.90;;;;;;4958724;28;20257;-76
2021/09/22 02:04:44;;;;;;;14.43;11.27;;;7.90;99.90;;;;;;4984882;28;20206;-76
2021/09/22 02:07:15;;;;;;;15.83;12.50;;;7.90;99.90;;;;;;4989442;28;20211;-75
2021/09/22 02:09:43;;;;;;;14.77;11.37;;;7.80;99.90;;;;;;4990927;28;20204;-76
2021/09/22 02:12:10;;;;;;;16.90;12.47;;;7.70;99.90;;;;;;4991347;28;20217;-76
2021/09/22 02:14:37;;;;;;;14.90;11.33;;;7.70;99.90;;;;;;4990790;28;20227;-76
2021/09/22 02:17:06;;;;;;;18.17;12.57;;;7.70;99.90;;;;;;4989970;28;20296;-75
2021/09/22 02:19:39;;;;;;;15.20;12.97;;;7.70;99.90;;;;;;4986900;28;20268;-77
2021/09/22 02:22:33;;;;;;;14.97;11.50;;;7.60;99.90;;;;;;4995763;28;20292;-75
2021/09/22 02:25:12;;;;;;;15.10;13.57;;;7.70;99.90;;;;;;4987936;28;20201;-76
2021/09/22 02:27:41;;;;;;;13.27;11.87;;;7.70;99.90;;;;;;4986391;28;20221;-76
2021/09/22 02:30:13;;;;;;;16.40;14.90;;;7.70;99.90;;;;;;4990157;28;20208;-76
2021/09/22 02:32:43;;;;;;;15.63;11.70;;;7.70;99.90;;;;;;4988574;28;20222;-78
2021/09/22 02:35:11;;;;;;;15.90;12.67;;;7.60;99.90;;;;;;4989995;28;20589;-75
2021/09/22 02:37:59;;;;;;;15.70;13.00;;;7.60;99.90;;;;;;5005069;28;20280;-78
2021/09/22 02:40:40;;;;;;;16.03;14.33;;;7.50;99.90;;;;;;4987779;28;20207;-76
2021/09/22 02:43:07;;;;;;;16.17;14.50;;;7.50;99.90;;;;;;4985700;28;20225;-76
2021/09/22 02:45:34;;;;;;;18.83;16.87;;;7.50;99.90;;;;;;4992148;28;20208;-77
2021/09/22 02:48:01;;;;;;;17.17;15.67;;;7.40;99.90;;;;;;4980403;28;20285;-76
2021/09/22 02:50:28;;;;;;;17.30;15.60;;;7.40;99.90;;;;;;4979845;28;20748;-75
2021/09/22 02:52:55;;;;;;;14.60;12.53;;;7.40;99.90;;;;;;4979033;28;20643;-75
2021/09/22 02:55:23;;;;;;;15.07;13.57;;;7.40;99.90;;;;;;4980817;28;20742;-75
2021/09/22 02:57:51;;;;;;;15.30;13.80;;;7.40;99.90;;;;;;4991782;28;20218;-77
2021/09/22 03:00:18;;;;;;;18.87;16.93;;;7.40;99.90;;;;;;4981832;28;20214;-75
2021/09/22 03:02:50;;;;;;;18.63;16.83;;;7.30;99.90;;;;;;4991029;28;20676;-75
2021/09/22 03:05:17;;;;;;;18.97;17.07;;;7.40;99.90;;;;;;5009227;28;20258;-78
2021/09/22 03:07:43;;;;;;;19.27;17.43;;;7.30;99.90;;;;;;4990674;28;20207;-77
2021/09/22 03:10:10;;;;;;;19.13;17.33;;;7.30;99.90;;;;;;4993678;28;20201;-75
2021/09/22 03:12:39;;;;;;;18.27;16.47;;;7.30;99.90;;;;;;4998450;28;20247;-76
2021/09/22 03:15:07;;;;;;;18.37;16.60;;;7.30;99.90;;;;;;4993997;28;20206;-76
2021/09/22 03:17:34;;;;;;;19.70;17.87;;;7.30;99.90;;;;;;4996266;28;20288;-76
2021/09/22 03:20:01;;;;;;;18.77;16.97;;;7.40;99.90;;;;;;4986598;28;20581;-77
2021/09/22 03:22:28;;;;;;;19.20;17.20;;;7.40;99.90;;;;;;4985086;28;20744;-79
2021/09/22 03:25:25;;;;;;;15.77;12.23;;;7.40;99.90;;;;;;4992984;28;20208;-75
2021/09/22 03:27:53;;;;;;;15.00;11.93;;;7.40;99.90;;;;;;4995990;28;20232;-74
2021/09/22 03:30:23;;;;;;;16.40;13.10;;;7.40;99.90;;;;;;4993777;28;20214;-73
2021/09/22 03:33:03;;;;;;;19.67;17.77;;;7.30;99.90;;;;;;4991268;28;20217;-74
2021/09/22 03:35:30;;;;;;;18.60;16.80;;;7.30;99.90;;;;;;4996762;28;20196;-74
2021/09/22 03:37:58;;;;;;;18.40;16.60;;;7.30;99.90;;;;;;4989990;28;20199;-74
2021/09/22 03:40:25;;;;;;;18.70;16.87;;;7.30;99.90;;;;;;4991893;28;20465;-74
2021/09/22 03:42:53;;;;;;;18.80;16.90;;;7.30;99.90;;;;;;4990161;28;20226;-74
2021/09/22 03:45:21;;;;;;;19.30;17.40;;;7.30;99.90;;;;;;5007488;28;20195;-73
2021/09/22 03:47:47;;;;;;;19.90;17.00;;;7.30;99.90;;;;;;5008158;28;20208;-74
2021/09/22 03:50:15;;;;;;;19.17;17.37;;;7.30;99.90;;;;;;5011465;28;20575;-74
2021/09/22 03:53:00;;;;;;;18.70;16.80;;;7.30;99.90;;;;;;5004285;28;20266;-74
2021/09/22 03:55:27;;;;;;;20.37;18.37;;;7.20;99.90;;;;;;4994053;28;20203;-74
2021/09/22 03:57:56;;;;;;;19.13;17.27;;;7.20;99.90;;;;;;4989730;28;20201;-74
2021/09/22 04:00:22;;;;;;;19.57;17.67;;;7.20;99.90;;;;;;5006690;28;20697;-74
2021/09/22 04:02:49;;;;;;;17.90;15.97;;;7.10;99.90;;;;;;4990253;28;20225;-76
2021/09/22 04:05:16;;;;;;;15.03;12.87;;;7.10;99.90;;;;;;4989844;28;20225;-74
2021/09/22 04:07:44;;;;;;;17.53;14.40;;;7.10;99.90;;;;;;4991076;28;20210;-74
2021/09/22 04:10:12;;;;;;;13.17;11.80;;;7.20;99.90;;;;;;4992222;28;20201;-74
2021/09/22 04:12:39;;;;;;;19.03;13.63;;;7.10;99.90;;;;;;4993865;28;20244;-73
2021/09/22 04:15:09;;;;;;;17.70;15.63;;;7.10;99.90;;;;;;5006802;28;20248;-74
2021/09/22 04:17:37;;;;;;;18.40;16.60;;;7.10;99.90;;;;;;4994527;28;20229;-74
2021/09/22 04:20:05;;;;;;;17.50;15.70;;;7.00;99.90;;;;;;4996119;28;20675;-75
2021/09/22 04:22:39;;;;;;;20.47;17.37;;;7.00;99.90;;;;;;4990595;28;20240;-74
2021/09/22 04:25:07;;;;;;;19.00;17.10;;;7.00;99.90;;;;;;4989748;28;20256;-76
2021/09/22 04:27:40;;;;;;;18.73;16.73;;;7.00;99.90;;;;;;4989079;28;20205;-75
2021/09/22 04:30:19;;;;;;;18.57;16.00;;;7.00;99.90;;;;;;4993190;28;20677;-76
2021/09/22 04:33:04;;;;;;;17.03;14.90;;;7.00;99.90;;;;;;5002987;28;20789;-76
2021/09/22 04:35:52;;;;;;;15.93;14.33;;;7.00;99.90;;;;;;5000077;28;20200;-75
2021/09/22 04:38:38;;;;;;;17.00;15.30;;;6.90;99.90;;;;;;5005926;28;20216;-76
2021/09/22 04:41:23;;;;;;;16.90;15.20;;;6.90;99.90;;;;;;5010165;28;20696;-75
2021/09/22 04:44:13;;;;;;;16.60;14.90;;;6.90;99.90;;;;;;4981491;28;20312;-76
2021/09/22 04:47:00;;;;;;;15.63;14.13;;;6.90;99.90;;;;;;5001382;28;20197;-76
2021/09/22 04:49:45;;;;;;;17.00;15.30;;;6.80;99.90;;;;;;5006400;28;20724;-76
2021/09/22 04:52:31;;;;;;;18.90;16.03;;;6.90;99.90;;;;;;5013505;28;20235;-76
2021/09/22 04:55:17;;;;;;;19.00;17.07;;;6.80;99.90;;;;;;5008329;28;20232;-75
2021/09/22 04:58:03;;;;;;;18.30;16.40;;;6.80;99.90;;;;;;4999655;28;20331;-75
2021/09/22 05:00:48;;;;;;;20.17;16.03;;;6.70;99.90;;;;;;5009766;28;20231;-75
2021/09/22 05:03:35;;;;;;;18.93;16.27;;;6.70;99.90;;;;;;4998356;28;20714;-76
2021/09/22 05:06:21;;;;;;;19.97;17.80;;;6.70;99.90;;;;;;5007318;28;20685;-75
2021/09/22 05:09:06;;;;;;;20.20;18.20;;;6.70;99.90;;;;;;5007479;28;20286;-76
2021/09/22 05:11:52;;;;;;;20.77;18.67;;;6.70;99.90;;;;;;4993806;28;20275;-75
2021/09/22 05:14:37;;;;;;;18.70;16.77;;;6.70;99.90;;;;;;4994545;28;20701;-76
2021/09/22 05:17:23;;;;;;;20.03;17.97;;;6.70;99.90;;;;;;5008545;28;20785;-76
2021/09/22 05:20:11;;;;;;;20.07;18.07;;;6.80;99.90;;;;;;5003454;28;20705;-75
2021/09/22 05:22:57;;;;;;;22.10;19.53;;;6.80;99.90;;;;;;5002307;28;20232;-76
2021/09/22 05:25:42;;;;;;;19.67;17.77;;;6.80;99.90;;;;;;5008307;28;20348;-76
2021/09/22 05:28:28;;;;;;;18.20;16.40;;;6.80;99.90;;;;;;5006789;28;20212;-76
2021/09/22 05:31:13;;;;;;;20.33;18.30;;;6.80;99.90;;;;;;5008325;28;20589;-76
2021/09/22 05:33:59;;;;;;;18.97;16.97;;;6.90;99.90;;;;;;5001419;28;20792;-76
2021/09/22 05:36:46;;;;;;;18.23;16.53;;;6.90;99.90;;;;;;5006767;28;20347;-75
2021/09/22 05:39:31;;;;;;;19.50;17.60;;;7.00;99.90;;;;;;5006022;28;20328;-76
2021/09/22 05:42:17;;;;;;;19.53;17.73;;;7.00;99.90;;;;;;5008811;28;20215;-76
2021/09/22 05:45:03;;;;;;;18.53;16.83;;;7.10;99.90;;;;;;5004612;28;20751;-76
2021/09/22 05:47:49;;;;;;;19.43;17.63;;;7.10;99.90;;;;;;5011672;28;20200;-76
2021/09/22 05:50:34;;;;;;;18.97;17.07;;;7.20;99.90;;;;;;5010564;28;20219;-73
2021/09/22 05:53:21;;;;;;;14.00;11.07;;;7.30;99.90;;;;;;5000734;28;20633;-76
2021/09/22 05:56:07;;;;;;;20.13;13.40;;;7.30;99.90;;;;;;5005408;28;20690;-73
2021/09/22 05:58:52;;;;;;;16.13;12.63;;;7.40;99.90;;;;;;5003964;28;20689;-74
2021/09/22 06:01:38;;;;;;;13.80;11.70;;;7.50;99.90;;;;;;5010434;28;20305;-73
2021/09/22 06:04:24;;;;;;;15.73;12.17;;;7.70;99.90;;;;;;5008762;28;20354;-73
2021/09/22 06:07:29;;;;;;;15.30;13.67;;;7.70;99.90;;;;;;4940610;29;20202;-74
2021/09/22 06:10:15;;;;;;;14.87;13.37;;;7.80;99.90;;;;;;4941067;29;20207;-73
2021/09/22 06:12:57;;;;;;;14.77;13.17;;;7.80;99.90;;;;;;4973660;28;20305;-73
2021/09/22 06:15:24;;;;;;;13.97;11.43;;;7.90;99.90;;;;;;5008422;28;20490;-73
2021/09/22 06:17:53;;;;;;;14.10;10.17;;;8.00;99.90;;;;;;4986615;28;20722;-74
2021/09/22 06:20:21;;;;;;;12.60;9.77;;;8.10;99.90;;;;;;4986908;28;20589;-74
2021/09/22 06:22:48;;;;;;;17.23;14.93;;;8.10;99.90;;;;;;5008173;23;20235;-75
2021/09/22 06:25:16;;;;;;;11.23;9.77;;;8.20;99.90;;;;;;4969495;28;20235;-76
2021/09/22 06:27:44;;;;;;;13.07;10.47;;;8.30;99.90;;;;;;4967893;28;20631;-76
2021/09/22 06:30:11;;;;;;;11.93;10.70;;;8.40;99.90;;;;;;4992336;28;20247;-76
2021/09/22 06:32:39;;;;;;;10.57;9.47;;;8.50;99.90;;;;;;4976571;28;20267;-76
2021/09/22 06:35:30;;;;;;;11.03;9.60;;;8.70;99.90;;;;;;4991429;28;20201;-76
2021/09/22 06:38:01;;;;;;;10.33;9.23;;;8.80;99.90;;;;;;4997258;28;20232;-76
2021/09/22 06:40:35;;;;;;;11.07;9.77;;;8.90;99.90;;;;;;4992088;28;20262;-76
2021/09/22 06:43:04;;;;;;;10.87;9.27;;;9.10;99.90;;;;;;4987286;28;20685;-76
2021/09/22 06:45:31;;;;;;;11.67;10.47;;;9.20;99.90;;;;;;4991602;28;20218;-76
2021/09/22 06:47:58;;;;;;;11.90;9.90;;;9.40;99.90;;;;;;4989036;28;20620;-76
2021/09/22 06:50:25;;;;;;;15.03;13.63;;;9.40;99.90;;;;;;5005374;28;20669;-76
2021/09/22 06:52:52;;;;;;;9.90;8.90;;;9.50;99.90;;;;;;5003533;28;20709;-76
2021/09/22 06:55:19;;;;;;;10.27;9.17;;;9.60;99.90;;;;;;5008854;28;20601;-76
2021/09/22 06:57:47;;;;;;;10.03;8.83;;;9.80;99.90;;;;;;4986671;28;20253;-76
2021/09/22 07:00:15;;;;;;;10.63;9.37;;;10.00;99.90;;;;;;5004752;28;20246;-76
2021/09/22 07:02:42;;;;;;;10.67;9.23;;;10.20;99.90;;;;;;4987673;28;20208;-76
2021/09/22 07:05:11;;;;;;;11.03;8.53;;;10.40;99.90;;;;;;4989074;28;20225;-76
2021/09/22 07:07:39;;;;;;;16.20;14.80;;;10.70;99.90;;;;;;4987573;28;20212;-76
2021/09/22 07:10:07;;;;;;;15.33;14.13;;;11.00;99.90;;;;;;4993639;28;20670;-76
2021/09/22 07:12:34;;;;;;;11.70;10.50;;;11.30;99.90;;;;;;5006663;28;20252;-77
2021/09/22 07:15:03;;;;;;;14.07;12.77;;;11.60;99.90;;;;;;5012198;28;20197;-77
2021/09/22 07:17:30;;;;;;;14.73;13.53;;;12.00;99.90;;;;;;4986644;28;20624;-77
2021/09/22 07:19:58;;;;;;;15.57;14.17;;;12.40;99.90;;;;;;4989637;28;20197;-77
2021/09/22 07:22:25;;;;;;;14.07;12.57;;;12.70;99.90;;;;;;4988209;28;20727;-77
2021/09/22 07:24:51;;;;;;;17.27;15.77;;;12.90;99.90;;;;;;5012121;28;20238;-77
2021/09/22 07:27:19;;;;;;;15.53;14.23;;;13.10;99.90;;;;;;4990983;28;20204;-77
2021/09/22 07:29:45;;;;;;;15.77;14.57;;;13.40;99.90;;;;;;5010917;28;20201;-77
2021/09/22 07:32:15;;;;;;;16.97;15.47;;;13.60;99.90;;;;;;4994578;28;20764;-77
2021/09/22 07:34:42;;;;;;;17.17;15.43;;;13.80;99.90;;;;;;4987959;28;20592;-77
2021/09/22 07:37:11;;;;;;;16.57;15.23;;;14.00;99.90;;;;;;5011942;28;20710;-77
2021/09/22 07:39:40;;;;;;;15.10;13.77;;;14.20;99.90;;;;;;5000858;28;20248;-77
2021/09/22 07:42:11;;;;;;;11.77;10.03;;;14.20;99.90;;;;;;4992399;28;20212;-77
2021/09/22 07:44:39;;;;;;;13.33;12.23;;;14.10;99.90;;;;;;5007629;28;20678;-77
2021/09/22 07:47:05;;;;;;;17.03;15.53;;;14.30;99.90;;;;;;4994359;28;20496;-77
2021/09/22 07:49:34;;;;;;;16.13;14.83;;;14.40;99.90;;;;;;5009999;28;20201;-77
2021/09/22 07:52:01;;;;;;;17.63;16.17;;;14.30;99.90;;;;;;5011410;28;20250;-77
2021/09/22 07:54:27;;;;;;;11.60;10.40;;;13.90;99.90;;;;;;5011967;28;20212;-76
2021/09/22 07:56:54;;;;;;;11.50;10.40;;;13.90;99.90;;;;;;4988603;28;20613;-77
2021/09/22 07:59:21;;;;;;;11.47;9.83;;;14.20;99.90;;;;;;4994057;28;20201;-77
2021/09/22 08:01:48;;;;;;;15.47;14.07;;;14.50;99.90;;;;;;5008843;28;20637;-77
2021/09/22 08:04:15;;;;;;;12.63;9.87;;;14.40;99.90;;;;;;5011324;28;20274;-77
2021/09/22 08:06:43;;;;;;;11.60;10.40;;;14.60;99.90;;;;;;4992903;28;20209;-77
2021/09/22 08:09:10;;;;;;;13.60;10.77;;;14.80;99.90;;;;;;4991353;28;20642;-77
2021/09/22 08:11:37;;;;;;;10.77;9.67;;;15.00;99.90;;;;;;4990403;28;20202;-77
2021/09/22 08:14:04;;;;;;;15.20;11.10;;;14.90;99.90;;;;;;5011014;28;20224;-77
2021/09/22 08:16:31;;;;;;;10.47;9.37;;;15.10;99.90;;;;;;5009841;28;20196;-77
2021/09/22 08:18:57;;;;;;;16.17;14.77;;;15.20;99.90;;;;;;4995461;28;20198;-77
2021/09/22 08:21:24;;;;;;;16.03;14.43;;;15.30;99.90;;;;;;5007860;28;20208;-77
2021/09/22 08:23:52;;;;;;;12.60;10.10;;;15.60;99.90;;;;;;5014613;28;20724;-77
2021/09/22 08:26:19;;;;;;;16.57;15.07;;;15.90;99.90;;;;;;4992222;28;20222;-77
2021/09/22 08:28:46;;;;;;;10.57;9.43;;;16.20;99.90;;;;;;4996631;28;20673;-77
2021/09/22 08:31:13;;;;;;;11.97;10.87;;;16.60;99.90;;;;;;4997477;28;20256;-77
2021/09/22 08:33:40;;;;;;;13.03;10.60;;;16.90;99.90;;;;;;5014343;28;20237;-77
2021/09/22 08:36:08;;;;;;;14.47;13.13;;;17.00;99.90;;;;;;5014184;28;20188;-77
2021/09/22 08:38:35;;;;;;;11.10;8.70;;;17.10;99.90;;;;;;4996502;28;20207;-77
2021/09/22 08:41:04;;;;;;;10.43;9.33;;;17.20;99.90;;;;;;5009422;28;20258;-77
2021/09/22 08:43:31;;;;;;;13.73;12.60;;;17.50;99.90;;;;;;5008649;28;20221;-77
2021/09/22 08:45:58;;;;;;;16.30;15.00;;;17.70;99.90;;;;;;5010986;28;20725;-77
2021/09/22 08:48:25;;;;;;;15.90;14.47;;;17.40;99.90;;;;;;4993279;28;20237;-78
2021/09/22 08:50:53;;;;;;;15.40;13.80;;;17.30;99.90;;;;;;5006319;28;20210;-78
2021/09/22 08:53:20;;;;;;;16.83;15.43;;;17.30;99.90;;;;;;5010220;28;20282;-78
2021/09/22 08:55:47;;;;;;;16.47;14.97;;;17.40;99.90;;;;;;4990690;28;20224;-78
2021/09/22 08:58:15;;;;;;;15.73;14.53;;;17.40;99.90;;;;;;5010188;28;20201;-77
2021/09/22 09:00:43;;;;;;;16.07;14.53;;;17.40;99.90;;;;;;5013677;28;20267;-77
2021/09/22 09:03:30;;;;;;;17.63;16.20;;;17.50;99.90;;;;;;5008621;28;20308;-78
2021/09/22 09:06:15;;;;;;;15.13;13.83;;;17.50;99.90;;;;;;5003706;28;20628;-78
2021/09/22 09:08:42;;;;;;;15.23;14.03;;;17.70;99.90;;;;;;4992919;28;20576;-77
2021/09/22 09:11:09;;;;;;;15.57;14.30;;;17.50;99.90;;;;;;5006721;28;20259;-77
2021/09/22 09:13:47;;;;;;;17.07;15.77;;;17.30;99.90;;;;;;5011533;28;20220;-77
2021/09/22 09:16:17;;;;;;;17.10;15.60;;;17.40;99.90;;;;;;4992747;28;20237;-78
2021/09/22 09:18:47;;;;;;;9.63;8.33;;;17.90;99.90;;;;;;5005017;28;20665;-78
2021/09/22 09:21:14;;;;;;;10.63;9.53;;;18.20;99.90;;;;;;5010102;28;20204;-78
2021/09/22 09:23:49;;;;;;;10.13;9.03;;;18.40;99.90;;;;;;5008989;28;20250;-77
2021/09/22 09:26:19;;;;;;;9.97;8.97;;;18.50;99.90;;;;;;5007446;28;20200;-78
2021/09/22 09:28:50;;;;;;;11.97;10.83;;;18.30;99.90;;;;;;5009800;28;20197;-77
2021/09/22 09:31:17;;;;;;;15.03;13.93;;;18.20;99.90;;;;;;5009660;28;20200;-77
2021/09/22 09:33:46;;;;;;;12.60;11.60;;;18.40;99.90;;;;;;5008409;28;20209;-77
2021/09/22 09:36:14;;;;;;;10.73;9.80;;;18.60;99.90;;;;;;5008296;28;20293;-77
2021/09/22 09:38:46;;;;;;;8.77;7.90;;;18.80;99.90;;;;;;4992194;28;20256;-77
2021/09/22 09:41:25;;;;;;;16.27;14.90;;;19.00;99.90;;;;;;4988154;28;20260;-78
2021/09/22 09:43:53;;;;;;;10.07;9.07;;;19.00;99.90;;;;;;4987097;28;20217;-78
2021/09/22 09:46:22;;;;;;;13.80;12.57;;;18.50;99.90;;;;;;5009115;28;20562;-77
2021/09/22 09:49:00;;;;;;;10.33;8.90;;;18.50;99.90;;;;;;5006564;28;20268;-78
2021/09/22 09:51:35;;;;;;;8.13;7.43;;;18.60;99.90;;;;;;4988078;28;20201;-78
2021/09/22 09:54:17;;;;;;;12.97;11.87;;;18.80;99.90;;;;;;5012283;28;20270;-77
2021/09/22 09:56:45;;;;;;;14.17;13.07;;;18.80;99.90;;;;;;5007876;28;20247;-77
2021/09/22 09:59:14;;;;;;;8.83;7.37;;;18.60;99.90;;;;;;5007177;28;20676;-77
2021/09/22 10:01:43;;;;;;;8.57;7.70;;;18.80;99.90;;;;;;5004847;28;20633;-78
2021/09/22 10:04:13;;;;;;;12.03;11.03;;;19.00;99.90;;;;;;4991071;28;20275;-77
2021/09/22 10:06:40;;;;;;;7.80;6.93;;;18.90;99.90;;;;;;4990750;28;20245;-78
2021/09/22 10:09:08;;;;;;;9.00;8.10;;;19.00;99.90;;;;;;4991396;28;20202;-78
2021/09/22 10:11:37;;;;;;;10.10;9.10;;;18.80;99.90;;;;;;5010608;28;20359;-77
2021/09/22 10:14:05;;;;;;;7.90;7.10;;;18.50;99.90;;;;;;4988935;28;20224;-77
2021/09/22 10:16:34;;;;;;;14.33;13.30;;;18.20;99.90;;;;;;5004703;28;20694;-78
2021/09/22 10:19:02;;;;;;;8.97;7.73;;;18.30;99.90;;;;;;4990407;28;20197;-78
2021/09/22 10:21:31;;;;;;;8.20;7.30;;;18.50;99.90;;;;;;4989877;28;20209;-78
2021/09/22 10:23:59;;;;;;;8.50;7.30;;;18.20;99.90;;;;;;5005338;28;20237;-77
2021/09/22 10:26:27;;;;;;;10.37;7.77;;;18.20;99.90;;;;;;4991281;28;20209;-77
2021/09/22 10:28:58;;;;;;;9.87;7.20;;;18.00;99.90;;;;;;5004303;28;20607;-77
2021/09/22 10:31:38;;;;;;;13.47;12.37;;;17.80;99.90;;;;;;4995577;28;20793;-78
2021/09/22 10:34:06;;;;;;;14.40;13.20;;;17.90;99.90;;;;;;5009040;28;20303;-77
2021/09/22 10:36:39;;;;;;;8.97;6.97;;;17.90;99.90;;;;;;4984985;28;20283;-77
2021/09/22 10:39:08;;;;;;;8.93;7.37;;;17.90;99.90;;;;;;5004216;28;20214;-78
2021/09/22 10:41:43;;;;;;;7.50;6.70;;;17.80;99.90;;;;;;4990136;28;20254;-77
2021/09/22 10:44:31;;;;;;;10.27;8.00;;;17.80;99.90;;;;;;5005802;28;20226;-78
2021/09/22 10:47:31;;;;;;;8.40;6.53;;;17.70;99.90;;;;;;4980840;28;20578;-78
2021/09/22 10:49:59;;;;;;;8.17;7.37;;;17.60;99.90;;;;;;4987152;28;20211;-78
2021/09/22 10:52:31;;;;;;;13.83;12.53;;;17.60;99.90;;;;;;4993946;28;20259;-78
2021/09/22 10:55:07;;;;;;;8.03;7.23;;;17.60;99.90;;;;;;4991819;28;20680;-77
2021/09/22 10:57:34;;;;;;;7.63;6.97;;;17.70;99.90;;;;;;5006237;28;20191;-77
2021/09/22 11:00:09;;;;;;;9.00;8.10;;;17.80;99.90;;;;;;4985809;28;20230;-77
2021/09/22 11:02:45;;;;;;;11.43;10.43;;;17.70;99.90;;;;;;5005330;28;20679;-77
2021/09/22 11:05:14;;;;;;;7.57;6.87;;;17.60;99.90;;;;;;5006744;28;20199;-78
2021/09/22 11:07:59;;;;;;;7.40;6.63;;;17.40;99.90;;;;;;4986485;28;20205;-78
2021/09/22 11:10:46;;;;;;;7.00;6.30;;;17.60;99.90;;;;;;4987539;28;20224;-77
2021/09/22 11:13:32;;;;;;;9.23;8.43;;;17.70;99.90;;;;;;4990044;28;20224;-77
2021/09/22 11:16:09;;;;;;;12.60;11.60;;;17.70;99.90;;;;;;5002802;28;20208;-77
2021/09/22 11:18:39;;;;;;;7.30;6.60;;;17.60;99.90;;;;;;5008073;28;20208;-78
2021/09/22 11:21:08;;;;;;;10.00;7.87;;;17.60;99.90;;;;;;4994154;28;20214;-77
2021/09/22 11:23:34;;;;;;;7.10;6.30;;;17.60;99.90;;;;;;5009146;28;20228;-77
2021/09/22 11:26:05;;;;;;;8.60;7.73;;;17.70;99.90;;;;;;5011738;28;20193;-77
2021/09/22 11:28:31;;;;;;;7.47;6.70;;;17.80;99.90;;;;;;5012197;28;20207;-77
2021/09/22 11:30:59;;;;;;;7.30;6.60;;;17.80;99.90;;;;;;4990555;28;20231;-77
2021/09/22 11:33:27;;;;;;;7.27;6.57;;;17.80;99.90;;;;;;5012266;28;20212;-77
2021/09/22 11:35:54;;;;;;;6.70;5.37;;;17.80;99.90;;;;;;4992910;28;20216;-77
2021/09/22 11:38:22;;;;;;;7.00;6.30;;;17.90;99.90;;;;;;5009692;28;20216;-78
2021/09/22 11:40:50;;;;;;;7.87;7.07;;;18.00;99.90;;;;;;4990656;28;20262;-78
2021/09/22 11:43:19;;;;;;;7.97;6.47;;;18.00;99.90;;;;;;4991704;28;20256;-77
2021/09/22 11:45:48;;;;;;;6.73;5.63;;;17.90;99.90;;;;;;5013803;28;20197;-78
2021/09/22 11:48:18;;;;;;;7.60;6.30;;;18.10;99.90;;;;;;5013667;28;20223;-77
2021/09/22 11:50:46;;;;;;;12.30;11.20;;;18.20;99.90;;;;;;4995228;28;20264;-78
2021/09/22 11:53:16;;;;;;;7.27;6.63;;;18.20;99.90;;;;;;4989783;28;20290;-77
2021/09/22 11:55:46;;;;;;;11.77;10.77;;;18.10;99.90;;;;;;4995927;28;20200;-77
2021/09/22 11:58:14;;;;;;;7.87;7.13;;;18.10;99.90;;;;;;4992771;28;20239;-77
2021/09/22 12:00:43;;;;;;;6.17;5.53;;;18.10;99.90;;;;;;5009905;28;20200;-77
2021/09/22 12:03:11;;;;;;;12.03;10.53;;;18.30;99.90;;;;;;5018060;28;20216;-77
2021/09/22 12:05:39;;;;;;;8.10;6.43;;;18.40;99.90;;;;;;5009900;28;20721;-78
2021/09/22 12:08:07;;;;;;;11.53;10.53;;;18.50;99.90;;;;;;5012943;28;20268;-77
2021/09/22 12:10:34;;;;;;;7.70;6.93;;;18.60;99.90;;;;;;5006997;28;20200;-77
2021/09/22 12:13:04;;;;;;;5.57;4.70;;;18.70;99.90;;;;;;4990468;28;20209;-78
2021/09/22 12:15:34;;;;;;;5.50;4.83;;;18.70;99.90;;;;;;5009766;28;20240;-78
2021/09/22 12:18:02;;;;;;;10.13;9.23;;;18.80;99.90;;;;;;5007887;28;20676;-77
2021/09/22 12:20:30;;;;;;;11.47;10.57;;;18.80;99.90;;;;;;5007374;28;20201;-77
2021/09/22 12:25:48;;;;;;;11.20;10.40;;;18.70;99.90;;;;;;4934183;29;20354;-77
2021/09/22 12:28:21;;;;;;;5.07;4.43;;;18.80;99.90;;;;;;4936056;29;20606;-78
2021/09/22 12:30:48;;;;;;;4.63;4.17;;;18.80;99.90;;;;;;4951062;29;20596;-77
2021/09/22 12:33:21;;;;;;;4.47;4.07;;;18.90;99.90;;;;;;4937207;29;20267;-77
2021/09/22 12:35:47;;;;;;;5.93;4.87;;;18.90;99.90;;;;;;4955312;29;20191;-77
2021/09/22 12:38:16;;;;;;;5.27;4.20;;;18.90;99.90;;;;;;4933939;29;20260;-77
2021/09/22 12:40:46;;;;;;;4.67;4.20;;;18.90;99.90;;;;;;4955327;28;20199;-77
2021/09/22 12:43:22;;;;;;;5.63;4.50;;;18.80;99.90;;;;;;4955031;28;20258;-77
2021/09/22 12:45:49;;;;;;;4.27;3.73;;;18.70;99.90;;;;;;4955042;29;20199;-77
2021/09/22 12:48:24;;;;;;;5.93;3.60;;;18.70;99.90;;;;;;4954868;29;20206;-77
2021/09/22 12:50:51;;;;;;;3.37;3.07;;;18.70;99.90;;;;;;4927163;29;20215;-77
2021/09/22 12:53:19;;;;;;;7.83;3.40;;;18.80;99.90;;;;;;4934667;29;20262;-77
2021/09/22 12:55:48;;;;;;;3.73;3.40;;;18.80;99.90;;;;;;4932971;29;20262;-77
2021/09/22 12:58:16;;;;;;;3.50;3.20;;;18.90;99.90;;;;;;4954716;28;20624;-77
2021/09/22 13:00:54;;;;;;;4.10;3.17;;;18.90;99.90;;;;;;4969558;28;20204;-76
2021/09/22 13:03:26;;;;;;;4.13;3.50;;;18.90;99.90;;;;;;4969918;28;20228;-76